sensor_id;sensor_type;location;lat;lon;timestamp;temperature;humidity
11264;DHT22;5689;48.798;9.070;2024-02-21T00:01:07;7.20;99.90
11264;DHT22;5689;48.798;9.070;2024-02-21T00:03:37;7.20;99.90
11264;DHT22;5689;48.798;9.070;2024-02-21T00:06:05;7.30;99.90
11264;DHT22;5689;48.798;9.070;2024-02-21T00:08:33;7.30;99.90
11264;DHT22;5689;48.798;9.070;2024-02-21T00:11:01;7.20;99.90
11264;DHT22;5689;48.798;9.070;2024-02-21T00:13:30;7.20;99.90
11264;DHT22;5689;48.798;9.070;2024-02-21T00:15:59;7.10;99.90
11264;DHT22;5689;48.798;9.070;2024-02-21T00:18:27;7.20;99.90
11264;DHT22;5689;48.798;9.070;2024-02-21T00:20:57;7.20;99.90
11264;DHT22;5689;48.798;9.070;2024-02-21T00:23:25;7.20;99.90
11264;DHT22;5689;48.798;9.070;2024-02-21T00:25:54;7.10;99.90
11264;DHT22;5689;48.798;9.070;2024-02-21T00:28:22;7.10;99.90
11264;DHT22;5689;48.798;9.070;2024-02-21T00:30:50;7.10;99.90
11264;DHT22;5689;48.798;9.070;2024-02-21T00:33:17;7.10;99.90
11264;DHT22;5689;48.798;9.070;2024-02-21T00:35:46;7.00;99.90
11264;DHT22;5689;48.798;9.070;2024-02-21T00:38:15;7.10;99.90
11264;DHT22;5689;48.798;9.070;2024-02-21T00:40:43;7.00;99.90
11264;DHT22;5689;48.798;9.070;2024-02-21T00:43:12;7.00;99.90
11264;DHT22;5689;48.798;9.070;2024-02-21T00:45:40;7.00;99.90
11264;DHT22;5689;48.798;9.070;2024-02-21T00:48:08;7.00;99.90
11264;DHT22;5689;48.798;9.070;2024-02-21T00:50:37;7.00;99.90
11264;DHT22;5689;48.798;9.070;2024-02-21T00:53:05;7.00;99.90
11264;DHT22;5689;48.798;9.070;2024-02-21T00:55:35;7.00;99.90
11264;DHT22;5689;48.798;9.070;2024-02-21T00:58:03;7.00;99.90
11264;DHT22;5689;48.798;9.070;2024-02-21T01:00:31;7.00;99.90
11264;DHT22;5689;48.798;9.070;2024-02-21T01:02:59;7.00;99.90
11264;DHT22;5689;48.798;9.070;2024-02-21T01:05:28;7.10;99.90
11264;DHT22;5689;48.798;9.070;2024-02-21T01:07:56;7.00;99.90
11264;DHT22;5689;48.798;9.070;2024-02-21T01:10:25;7.00;99.90
11264;DHT22;5689;48.798;9.070;2024-02-21T01:12:54;7.00;99.90
11264;DHT22;5689;48.798;9.070;2024-02-21T01:15:22;7.00;99.90
11264;DHT22;5689;48.798;9.070;2024-02-21T01:17:50;7.00;99.90
11264;DHT22;5689;48.798;9.070;2024-02-21T01:20:21;6.90;99.90
11264;DHT22;5689;48.798;9.070;2024-02-21T01:22:49;6.90;99.90
11264;DHT22;5689;48.798;9.070;2024-02-21T01:25:17;6.90;99.90
11264;DHT22;5689;48.798;9.070;2024-02-21T01:27:46;6.90;99.90
11264;DHT22;5689;48.798;9.070;2024-02-21T01:30:15;6.90;99.90
11264;DHT22;5689;48.798;9.070;2024-02-21T01:32:43;6.90;99.90
11264;DHT22;5689;48.798;9.070;2024-02-21T01:35:12;6.80;99.90
11264;DHT22;5689;48.798;9.070;2024-02-21T01:37:40;6.90;99.90
11264;DHT22;5689;48.798;9.070;2024-02-21T01:40:09;6.80;99.90
11264;DHT22;5689;48.798;9.070;2024-02-21T01:42:38;6.80;99.90
11264;DHT22;5689;48.798;9.070;2024-02-21T01:45:08;6.90;99.90
11264;DHT22;5689;48.798;9.070;2024-02-21T01:47:37;6.90;99.90
11264;DHT22;5689;48.798;9.070;2024-02-21T01:50:07;6.90;99.90
11264;DHT22;5689;48.798;9.070;2024-02-21T01:52:35;6.90;99.90
11264;DHT22;5689;48.798;9.070;2024-02-21T01:55:04;6.90;99.90
11264;DHT22;5689;48.798;9.070;2024-02-21T01:57:34;6.90;99.90
11264;DHT22;5689;48.798;9.070;2024-02-21T02:00:05;6.90;99.90
11264;DHT22;5689;48.798;9.070;2024-02-21T02:02:38;6.90;99.90
11264;DHT22;5689;48.798;9.070;2024-02-21T02:05:07;6.90;99.90
11264;DHT22;5689;48.798;9.070;2024-02-21T02:07:36;6.90;99.90
11264;DHT22;5689;48.798;9.070;2024-02-21T02:10:05;6.90;99.90
11264;DHT22;5689;48.798;9.070;2024-02-21T02:12:33;6.90;99.90
11264;DHT22;5689;48.798;9.070;2024-02-21T02:15:03;6.90;99.90
11264;DHT22;5689;48.798;9.070;2024-02-21T02:17:32;6.90;99.90
11264;DHT22;5689;48.798;9.070;2024-02-21T02:20:01;7.00;99.90
11264;DHT22;5689;48.798;9.070;2024-02-21T02:22:32;7.00;99.90
11264;DHT22;5689;48.798;9.070;2024-02-21T02:25:03;7.00;99.90
11264;DHT22;5689;48.798;9.070;2024-02-21T02:27:32;7.10;99.90
11264;DHT22;5689;48.798;9.070;2024-02-21T02:30:00;7.10;99.90
11264;DHT22;5689;48.798;9.070;2024-02-21T02:32:29;7.10;99.90
11264;DHT22;5689;48.798;9.070;2024-02-21T02:34:57;7.10;99.90
11264;DHT22;5689;48.798;9.070;2024-02-21T02:37:26;7.10;99.90
11264;DHT22;5689;48.798;9.070;2024-02-21T02:39:54;7.10;99.90
11264;DHT22;5689;48.798;9.070;2024-02-21T02:42:23;7.10;99.90
11264;DHT22;5689;48.798;9.070;2024-02-21T02:44:51;7.10;99.90
11264;DHT22;5689;48.798;9.070;2024-02-21T02:47:20;7.20;99.90
11264;DHT22;5689;48.798;9.070;2024-02-21T02:49:48;7.00;99.90
11264;DHT22;5689;48.798;9.070;2024-02-21T02:52:17;6.90;99.90
11264;DHT22;5689;48.798;9.070;2024-02-21T02:54:46;6.90;99.90
11264;DHT22;5689;48.798;9.070;2024-02-21T02:57:18;6.90;99.90
11264;DHT22;5689;48.798;9.070;2024-02-21T02:59:49;6.70;99.90
11264;DHT22;5689;48.798;9.070;2024-02-21T03:02:17;6.50;99.90
11264;DHT22;5689;48.798;9.070;2024-02-21T03:04:46;6.40;99.90
11264;DHT22;5689;48.798;9.070;2024-02-21T03:07:14;6.40;99.90
11264;DHT22;5689;48.798;9.070;2024-02-21T03:09:43;6.30;99.90
11264;DHT22;5689;48.798;9.070;2024-02-21T03:12:11;6.30;99.90
11264;DHT22;5689;48.798;9.070;2024-02-21T03:14:39;6.30;99.90
11264;DHT22;5689;48.798;9.070;2024-02-21T03:17:09;6.30;99.90
11264;DHT22;5689;48.798;9.070;2024-02-21T03:19:37;6.30;99.90
11264;DHT22;5689;48.798;9.070;2024-02-21T03:22:05;6.20;99.90
11264;DHT22;5689;48.798;9.070;2024-02-21T03:24:34;6.20;99.90
11264;DHT22;5689;48.798;9.070;2024-02-21T03:27:02;6.20;99.90
11264;DHT22;5689;48.798;9.070;2024-02-21T03:29:31;6.20;99.90
11264;DHT22;5689;48.798;9.070;2024-02-21T03:31:59;6.20;99.90
11264;DHT22;5689;48.798;9.070;2024-02-21T03:34:29;6.20;99.90
11264;DHT22;5689;48.798;9.070;2024-02-21T03:36:57;6.30;99.90
11264;DHT22;5689;48.798;9.070;2024-02-21T03:39:26;6.30;99.90
11264;DHT22;5689;48.798;9.070;2024-02-21T03:41:54;6.20;99.90
11264;DHT22;5689;48.798;9.070;2024-02-21T03:44:22;6.30;99.90
11264;DHT22;5689;48.798;9.070;2024-02-21T03:46:50;6.30;99.90
11264;DHT22;5689;48.798;9.070;2024-02-21T03:49:18;6.30;99.90
11264;DHT22;5689;48.798;9.070;2024-02-21T03:51:48;6.40;99.90
11264;DHT22;5689;48.798;9.070;2024-02-21T03:54:16;6.40;99.90
11264;DHT22;5689;48.798;9.070;2024-02-21T03:56:44;6.50;99.90
11264;DHT22;5689;48.798;9.070;2024-02-21T03:59:14;6.50;99.90
11264;DHT22;5689;48.798;9.070;2024-02-21T04:01:42;6.50;99.90
11264;DHT22;5689;48.798;9.070;2024-02-21T04:04:11;6.50;99.90
11264;DHT22;5689;48.798;9.070;2024-02-21T04:06:47;6.50;99.90
11264;DHT22;5689;48.798;9.070;2024-02-21T04:09:16;6.40;99.90
11264;DHT22;5689;48.798;9.070;2024-02-21T04:11:44;6.50;99.90
11264;DHT22;5689;48.798;9.070;2024-02-21T04:14:13;6.40;99.90
11264;DHT22;5689;48.798;9.070;2024-02-21T04:16:41;6.40;99.90
11264;DHT22;5689;48.798;9.070;2024-02-21T04:19:09;6.40;99.90
11264;DHT22;5689;48.798;9.070;2024-02-21T04:21:37;6.30;99.90
11264;DHT22;5689;48.798;9.070;2024-02-21T04:24:07;6.30;99.90
11264;DHT22;5689;48.798;9.070;2024-02-21T04:26:35;6.40;99.90
11264;DHT22;5689;48.798;9.070;2024-02-21T04:29:04;6.40;99.90
11264;DHT22;5689;48.798;9.070;2024-02-21T04:31:32;6.40;99.90
11264;DHT22;5689;48.798;9.070;2024-02-21T04:34:01;6.40;99.90
11264;DHT22;5689;48.798;9.070;2024-02-21T04:36:29;6.40;99.90
11264;DHT22;5689;48.798;9.070;2024-02-21T04:38:58;6.50;99.90
11264;DHT22;5689;48.798;9.070;2024-02-21T04:41:27;6.50;99.90
11264;DHT22;5689;48.798;9.070;2024-02-21T04:43:55;6.50;99.90
11264;DHT22;5689;48.798;9.070;2024-02-21T04:46:24;6.60;99.90
11264;DHT22;5689;48.798;9.070;2024-02-21T04:48:52;6.60;99.90
11264;DHT22;5689;48.798;9.070;2024-02-21T04:51:20;6.60;99.90
11264;DHT22;5689;48.798;9.070;2024-02-21T04:53:48;6.60;99.90
11264;DHT22;5689;48.798;9.070;2024-02-21T04:56:16;6.50;99.90
11264;DHT22;5689;48.798;9.070;2024-02-21T04:58:46;6.40;99.90
11264;DHT22;5689;48.798;9.070;2024-02-21T05:01:14;6.40;99.90
11264;DHT22;5689;48.798;9.070;2024-02-21T05:03:42;6.40;99.90
11264;DHT22;5689;48.798;9.070;2024-02-21T05:06:11;6.40;99.90
11264;DHT22;5689;48.798;9.070;2024-02-21T05:08:40;6.30;99.90
11264;DHT22;5689;48.798;9.070;2024-02-21T05:11:08;6.20;99.90
11264;DHT22;5689;48.798;9.070;2024-02-21T05:13:36;6.10;99.90
11264;DHT22;5689;48.798;9.070;2024-02-21T05:16:06;6.00;99.90
11264;DHT22;5689;48.798;9.070;2024-02-21T05:18:34;6.00;99.90
11264;DHT22;5689;48.798;9.070;2024-02-21T05:21:03;6.00;99.90
11264;DHT22;5689;48.798;9.070;2024-02-21T05:23:32;5.90;99.90
11264;DHT22;5689;48.798;9.070;2024-02-21T05:26:00;6.00;99.90
11264;DHT22;5689;48.798;9.070;2024-02-21T05:28:28;6.00;99.90
11264;DHT22;5689;48.798;9.070;2024-02-21T05:30:57;6.00;99.90
11264;DHT22;5689;48.798;9.070;2024-02-21T05:33:27;6.00;99.90
11264;DHT22;5689;48.798;9.070;2024-02-21T05:35:55;6.10;99.90
11264;DHT22;5689;48.798;9.070;2024-02-21T05:38:23;6.10;99.90
11264;DHT22;5689;48.798;9.070;2024-02-21T05:40:51;6.10;99.90
11264;DHT22;5689;48.798;9.070;2024-02-21T05:43:19;6.10;99.90
11264;DHT22;5689;48.798;9.070;2024-02-21T05:45:47;6.10;99.90
11264;DHT22;5689;48.798;9.070;2024-02-21T05:48:16;6.10;99.90
11264;DHT22;5689;48.798;9.070;2024-02-21T05:50:45;6.10;99.90
11264;DHT22;5689;48.798;9.070;2024-02-21T05:53:13;6.10;99.90
11264;DHT22;5689;48.798;9.070;2024-02-21T05:55:42;6.10;99.90
11264;DHT22;5689;48.798;9.070;2024-02-21T05:58:10;6.10;99.90
11264;DHT22;5689;48.798;9.070;2024-02-21T06:00:40;6.10;99.90
11264;DHT22;5689;48.798;9.070;2024-02-21T06:03:09;6.10;99.90
11264;DHT22;5689;48.798;9.070;2024-02-21T06:05:37;6.10;99.90
11264;DHT22;5689;48.798;9.070;2024-02-21T06:08:07;6.00;99.90
11264;DHT22;5689;48.798;9.070;2024-02-21T06:10:36;6.00;99.90
11264;DHT22;5689;48.798;9.070;2024-02-21T06:13:04;6.00;99.90
11264;DHT22;5689;48.798;9.070;2024-02-21T06:15:32;6.00;99.90
11264;DHT22;5689;48.798;9.070;2024-02-21T06:18:00;6.00;99.90
11264;DHT22;5689;48.798;9.070;2024-02-21T06:20:29;6.00;99.90
11264;DHT22;5689;48.798;9.070;2024-02-21T06:22:57;5.90;99.90
11264;DHT22;5689;48.798;9.070;2024-02-21T06:25:27;5.80;99.90
11264;DHT22;5689;48.798;9.070;2024-02-21T06:27:55;5.90;99.90
11264;DHT22;5689;48.798;9.070;2024-02-21T06:30:23;5.90;99.90
11264;DHT22;5689;48.798;9.070;2024-02-21T06:32:51;5.90;99.90
11264;DHT22;5689;48.798;9.070;2024-02-21T06:35:22;6.00;99.90
11264;DHT22;5689;48.798;9.070;2024-02-21T06:37:52;6.00;99.90
11264;DHT22;5689;48.798;9.070;2024-02-21T06:40:22;6.10;99.90
11264;DHT22;5689;48.798;9.070;2024-02-21T06:42:51;6.10;99.90
11264;DHT22;5689;48.798;9.070;2024-02-21T06:45:20;6.10;99.90
11264;DHT22;5689;48.798;9.070;2024-02-21T06:47:51;6.10;99.90
11264;DHT22;5689;48.798;9.070;2024-02-21T06:50:20;6.10;99.90
11264;DHT22;5689;48.798;9.070;2024-02-21T06:52:48;6.10;99.90
11264;DHT22;5689;48.798;9.070;2024-02-21T06:55:16;6.10;99.90
11264;DHT22;5689;48.798;9.070;2024-02-21T06:57:44;6.10;99.90
11264;DHT22;5689;48.798;9.070;2024-02-21T07:00:15;6.10;99.90
11264;DHT22;5689;48.798;9.070;2024-02-21T07:02:44;6.20;99.90
11264;DHT22;5689;48.798;9.070;2024-02-21T07:05:12;6.20;99.90
11264;DHT22;5689;48.798;9.070;2024-02-21T07:07:40;6.30;99.90
11264;DHT22;5689;48.798;9.070;2024-02-21T07:10:09;6.40;99.90
11264;DHT22;5689;48.798;9.070;2024-02-21T07:12:37;6.40;99.90
11264;DHT22;5689;48.798;9.070;2024-02-21T07:15:09;6.50;99.90
11264;DHT22;5689;48.798;9.070;2024-02-21T07:17:39;6.50;99.90
11264;DHT22;5689;48.798;9.070;2024-02-21T07:20:08;6.60;99.90
11264;DHT22;5689;48.798;9.070;2024-02-21T07:22:36;6.70;99.90
11264;DHT22;5689;48.798;9.070;2024-02-21T07:25:06;6.70;99.90
11264;DHT22;5689;48.798;9.070;2024-02-21T07:27:34;6.80;99.90
11264;DHT22;5689;48.798;9.070;2024-02-21T07:30:03;7.00;99.90
11264;DHT22;5689;48.798;9.070;2024-02-21T07:32:31;7.10;99.90
11264;DHT22;5689;48.798;9.070;2024-02-21T07:35:01;7.10;99.90
11264;DHT22;5689;48.798;9.070;2024-02-21T07:37:29;7.10;99.90
11264;DHT22;5689;48.798;9.070;2024-02-21T07:39:58;7.20;99.90
11264;DHT22;5689;48.798;9.070;2024-02-21T07:42:27;7.40;99.90
11264;DHT22;5689;48.798;9.070;2024-02-21T07:44:55;7.50;99.90
11264;DHT22;5689;48.798;9.070;2024-02-21T07:47:24;7.60;99.90
11264;DHT22;5689;48.798;9.070;2024-02-21T07:49:52;7.90;99.90
11264;DHT22;5689;48.798;9.070;2024-02-21T07:52:22;8.00;99.90
11264;DHT22;5689;48.798;9.070;2024-02-21T07:54:51;8.70;99.90
11264;DHT22;5689;48.798;9.070;2024-02-21T07:57:19;9.10;99.90
11264;DHT22;5689;48.798;9.070;2024-02-21T07:59:48;9.60;99.90
11264;DHT22;5689;48.798;9.070;2024-02-21T08:02:17;9.90;99.90
11264;DHT22;5689;48.798;9.070;2024-02-21T08:04:48;10.10;99.90
11264;DHT22;5689;48.798;9.070;2024-02-21T08:07:16;10.50;99.90
11264;DHT22;5689;48.798;9.070;2024-02-21T08:09:46;11.10;99.90
11264;DHT22;5689;48.798;9.070;2024-02-21T08:12:14;11.20;99.90
11264;DHT22;5689;48.798;9.070;2024-02-21T08:14:42;11.40;99.90
11264;DHT22;5689;48.798;9.070;2024-02-21T08:17:11;11.20;99.70
11264;DHT22;5689;48.798;9.070;2024-02-21T08:19:39;11.40;98.90
11264;DHT22;5689;48.798;9.070;2024-02-21T08:22:07;11.10;98.60
11264;DHT22;5689;48.798;9.070;2024-02-21T08:24:35;10.50;98.90
11264;DHT22;5689;48.798;9.070;2024-02-21T08:27:06;10.50;99.50
11264;DHT22;5689;48.798;9.070;2024-02-21T08:29:34;10.50;99.20
11264;DHT22;5689;48.798;9.070;2024-02-21T08:32:02;11.00;98.80
11264;DHT22;5689;48.798;9.070;2024-02-21T08:34:31;11.40;98.30
11264;DHT22;5689;48.798;9.070;2024-02-21T08:37:00;11.50;97.70
11264;DHT22;5689;48.798;9.070;2024-02-21T08:39:29;11.20;97.90
11264;DHT22;5689;48.798;9.070;2024-02-21T08:41:58;10.70;98.70
11264;DHT22;5689;48.798;9.070;2024-02-21T08:44:27;10.10;98.90
11264;DHT22;5689;48.798;9.070;2024-02-21T08:46:56;9.90;99.90
11264;DHT22;5689;48.798;9.070;2024-02-21T08:49:24;10.00;99.90
11264;DHT22;5689;48.798;9.070;2024-02-21T08:51:57;10.10;99.80
11264;DHT22;5689;48.798;9.070;2024-02-21T08:54:25;10.00;99.90
11264;DHT22;5689;48.798;9.070;2024-02-21T08:56:54;10.10;99.80
11264;DHT22;5689;48.798;9.070;2024-02-21T08:59:23;10.10;99.80
11264;DHT22;5689;48.798;9.070;2024-02-21T09:01:54;10.10;99.70
11264;DHT22;5689;48.798;9.070;2024-02-21T09:04:22;9.80;99.90
11264;DHT22;5689;48.798;9.070;2024-02-21T09:06:51;9.80;99.90
11264;DHT22;5689;48.798;9.070;2024-02-21T09:09:19;9.70;99.90
11264;DHT22;5689;48.798;9.070;2024-02-21T09:11:48;10.10;99.40
11264;DHT22;5689;48.798;9.070;2024-02-21T09:14:17;10.20;98.90
11264;DHT22;5689;48.798;9.070;2024-02-21T09:16:45;10.50;99.40
11264;DHT22;5689;48.798;9.070;2024-02-21T09:19:15;10.70;98.10
11264;DHT22;5689;48.798;9.070;2024-02-21T09:21:45;11.00;98.20
11264;DHT22;5689;48.798;9.070;2024-02-21T09:24:13;11.00;98.30
11264;DHT22;5689;48.798;9.070;2024-02-21T09:26:41;11.20;98.50
11264;DHT22;5689;48.798;9.070;2024-02-21T09:29:09;11.50;98.10
11264;DHT22;5689;48.798;9.070;2024-02-21T09:31:38;12.40;96.30
11264;DHT22;5689;48.798;9.070;2024-02-21T09:34:06;12.90;94.40
11264;DHT22;5689;48.798;9.070;2024-02-21T09:36:36;12.90;94.00
11264;DHT22;5689;48.798;9.070;2024-02-21T09:39:05;13.10;94.00
11264;DHT22;5689;48.798;9.070;2024-02-21T09:41:36;13.20;93.60
11264;DHT22;5689;48.798;9.070;2024-02-21T09:44:07;13.70;93.20
11264;DHT22;5689;48.798;9.070;2024-02-21T09:46:42;14.00;92.60
11264;DHT22;5689;48.798;9.070;2024-02-21T09:49:19;14.30;92.60
11264;DHT22;5689;48.798;9.070;2024-02-21T09:51:51;14.70;90.90
11264;DHT22;5689;48.798;9.070;2024-02-21T09:54:22;14.50;90.70
11264;DHT22;5689;48.798;9.070;2024-02-21T09:56:51;14.80;90.10
11264;DHT22;5689;48.798;9.070;2024-02-21T09:59:19;15.20;87.90
11264;DHT22;5689;48.798;9.070;2024-02-21T10:01:48;14.80;88.10
11264;DHT22;5689;48.798;9.070;2024-02-21T10:04:17;14.40;89.60
11264;DHT22;5689;48.798;9.070;2024-02-21T10:06:46;15.00;90.00
11264;DHT22;5689;48.798;9.070;2024-02-21T10:09:23;14.80;87.50
11264;DHT22;5689;48.798;9.070;2024-02-21T10:11:55;15.80;85.00
11264;DHT22;5689;48.798;9.070;2024-02-21T10:14:23;15.90;84.60
11264;DHT22;5689;48.798;9.070;2024-02-21T10:16:57;16.20;83.50
11264;DHT22;5689;48.798;9.070;2024-02-21T10:19:26;16.30;84.60
11264;DHT22;5689;48.798;9.070;2024-02-21T10:22:02;15.40;83.50
11264;DHT22;5689;48.798;9.070;2024-02-21T10:24:32;14.90;84.40
11264;DHT22;5689;48.798;9.070;2024-02-21T10:27:05;14.80;86.70
11264;DHT22;5689;48.798;9.070;2024-02-21T10:29:35;15.40;85.10
11264;DHT22;5689;48.798;9.070;2024-02-21T10:32:06;15.20;83.30
11264;DHT22;5689;48.798;9.070;2024-02-21T10:34:38;15.40;84.00
11264;DHT22;5689;48.798;9.070;2024-02-21T10:37:08;15.30;83.20
11264;DHT22;5689;48.798;9.070;2024-02-21T10:39:39;14.90;84.90
11264;DHT22;5689;48.798;9.070;2024-02-21T10:42:10;15.10;83.30
11264;DHT22;5689;48.798;9.070;2024-02-21T10:44:40;15.00;84.00
11264;DHT22;5689;48.798;9.070;2024-02-21T10:47:10;15.20;84.40
11264;DHT22;5689;48.798;9.070;2024-02-21T10:49:41;15.80;82.10
11264;DHT22;5689;48.798;9.070;2024-02-21T10:52:15;15.80;83.10
11264;DHT22;5689;48.798;9.070;2024-02-21T10:54:50;15.30;81.70
11264;DHT22;5689;48.798;9.070;2024-02-21T10:57:21;15.90;82.50
11264;DHT22;5689;48.798;9.070;2024-02-21T10:59:50;16.60;81.00
11264;DHT22;5689;48.798;9.070;2024-02-21T11:02:19;16.10;82.00
11264;DHT22;5689;48.798;9.070;2024-02-21T11:04:48;15.20;82.30
11264;DHT22;5689;48.798;9.070;2024-02-21T11:07:19;14.90;82.10
11264;DHT22;5689;48.798;9.070;2024-02-21T11:09:52;15.00;81.80
11264;DHT22;5689;48.798;9.070;2024-02-21T11:12:25;15.00;84.20
11264;DHT22;5689;48.798;9.070;2024-02-21T11:15:06;15.60;85.20
11264;DHT22;5689;48.798;9.070;2024-02-21T11:17:38;15.90;79.30
11264;DHT22;5689;48.798;9.070;2024-02-21T11:20:13;15.40;78.40
11264;DHT22;5689;48.798;9.070;2024-02-21T11:22:44;15.50;78.90
11264;DHT22;5689;48.798;9.070;2024-02-21T11:25:23;16.20;78.10
11264;DHT22;5689;48.798;9.070;2024-02-21T11:28:00;16.10;78.50
11264;DHT22;5689;48.798;9.070;2024-02-21T11:30:31;15.20;79.90
11264;DHT22;5689;48.798;9.070;2024-02-21T11:33:01;15.00;80.80
11264;DHT22;5689;48.798;9.070;2024-02-21T11:35:34;14.50;81.30
11264;DHT22;5689;48.798;9.070;2024-02-21T11:38:10;15.30;79.90
11264;DHT22;5689;48.798;9.070;2024-02-21T11:40:44;15.60;79.20
11264;DHT22;5689;48.798;9.070;2024-02-21T11:43:13;15.20;79.30
11264;DHT22;5689;48.798;9.070;2024-02-21T11:49:49;15.50;77.50
11264;DHT22;5689;48.798;9.070;2024-02-21T11:52:23;14.80;78.70
11264;DHT22;5689;48.798;9.070;2024-02-21T11:54:52;14.60;79.30
11264;DHT22;5689;48.798;9.070;2024-02-21T11:57:23;14.40;81.60
11264;DHT22;5689;48.798;9.070;2024-02-21T11:59:52;14.70;81.30
11264;DHT22;5689;48.798;9.070;2024-02-21T12:02:26;14.00;83.50
11264;DHT22;5689;48.798;9.070;2024-02-21T12:04:55;14.60;80.40
11264;DHT22;5689;48.798;9.070;2024-02-21T12:07:23;14.90;80.10
11264;DHT22;5689;48.798;9.070;2024-02-21T12:09:52;14.90;80.50
11264;DHT22;5689;48.798;9.070;2024-02-21T12:12:20;15.20;80.00
11264;DHT22;5689;48.798;9.070;2024-02-21T12:14:56;15.20;79.80
11264;DHT22;5689;48.798;9.070;2024-02-21T12:17:25;15.30;78.60
11264;DHT22;5689;48.798;9.070;2024-02-21T12:19:53;14.60;82.80
11264;DHT22;5689;48.798;9.070;2024-02-21T12:22:21;15.10;79.50
11264;DHT22;5689;48.798;9.070;2024-02-21T12:24:50;15.90;79.20
11264;DHT22;5689;48.798;9.070;2024-02-21T12:27:18;16.40;78.00
11264;DHT22;5689;48.798;9.070;2024-02-21T12:29:46;16.00;77.20
11264;DHT22;5689;48.798;9.070;2024-02-21T12:32:16;16.10;76.60
11264;DHT22;5689;48.798;9.070;2024-02-21T12:34:44;16.30;76.20
11264;DHT22;5689;48.798;9.070;2024-02-21T12:37:14;16.40;76.50
11264;DHT22;5689;48.798;9.070;2024-02-21T12:39:42;16.70;74.60
11264;DHT22;5689;48.798;9.070;2024-02-21T12:42:11;16.70;76.40
11264;DHT22;5689;48.798;9.070;2024-02-21T12:44:39;17.00;74.10
11264;DHT22;5689;48.798;9.070;2024-02-21T12:47:07;16.90;74.00
11264;DHT22;5689;48.798;9.070;2024-02-21T12:49:37;16.50;72.80
11264;DHT22;5689;48.798;9.070;2024-02-21T12:52:06;16.40;74.20
11264;DHT22;5689;48.798;9.070;2024-02-21T12:54:35;16.00;74.90
11264;DHT22;5689;48.798;9.070;2024-02-21T12:57:03;15.90;75.10
11264;DHT22;5689;48.798;9.070;2024-02-21T12:59:31;15.90;73.60
11264;DHT22;5689;48.798;9.070;2024-02-21T13:02:00;15.80;76.50
11264;DHT22;5689;48.798;9.070;2024-02-21T13:04:28;16.00;76.10
11264;DHT22;5689;48.798;9.070;2024-02-21T13:06:57;16.30;73.80
11264;DHT22;5689;48.798;9.070;2024-02-21T13:09:26;15.70;74.30
11264;DHT22;5689;48.798;9.070;2024-02-21T13:11:54;15.50;75.90
11264;DHT22;5689;48.798;9.070;2024-02-21T13:14:22;15.90;75.50
11264;DHT22;5689;48.798;9.070;2024-02-21T13:16:51;16.40;75.00
11264;DHT22;5689;48.798;9.070;2024-02-21T13:19:19;15.40;73.50
11264;DHT22;5689;48.798;9.070;2024-02-21T13:21:47;15.60;72.80
11264;DHT22;5689;48.798;9.070;2024-02-21T13:24:17;15.50;74.50
11264;DHT22;5689;48.798;9.070;2024-02-21T13:26:45;15.90;74.70
11264;DHT22;5689;48.798;9.070;2024-02-21T13:29:13;15.80;73.40
11264;DHT22;5689;48.798;9.070;2024-02-21T13:31:41;15.80;73.50
11264;DHT22;5689;48.798;9.070;2024-02-21T13:34:09;15.80;74.90
11264;DHT22;5689;48.798;9.070;2024-02-21T13:36:38;16.10;74.40
11264;DHT22;5689;48.798;9.070;2024-02-21T13:39:06;16.40;71.40
11264;DHT22;5689;48.798;9.070;2024-02-21T13:41:35;15.80;71.90
11264;DHT22;5689;48.798;9.070;2024-02-21T13:44:03;15.40;74.00
11264;DHT22;5689;48.798;9.070;2024-02-21T13:46:32;15.30;73.90
11264;DHT22;5689;48.798;9.070;2024-02-21T13:49:03;15.30;72.50
11264;DHT22;5689;48.798;9.070;2024-02-21T13:51:33;15.40;72.60
11264;DHT22;5689;48.798;9.070;2024-02-21T13:54:03;15.30;70.80
11264;DHT22;5689;48.798;9.070;2024-02-21T13:56:31;15.20;70.80
11264;DHT22;5689;48.798;9.070;2024-02-21T13:59:01;15.00;71.30
11264;DHT22;5689;48.798;9.070;2024-02-21T14:01:29;15.00;71.80
11264;DHT22;5689;48.798;9.070;2024-02-21T14:03:58;14.90;71.30
11264;DHT22;5689;48.798;9.070;2024-02-21T14:06:27;15.10;72.40
11264;DHT22;5689;48.798;9.070;2024-02-21T14:08:55;15.20;70.70
11264;DHT22;5689;48.798;9.070;2024-02-21T14:11:23;15.10;70.00
11264;DHT22;5689;48.798;9.070;2024-02-21T14:13:52;15.00;70.90
11264;DHT22;5689;48.798;9.070;2024-02-21T14:16:25;14.90;70.70
11264;DHT22;5689;48.798;9.070;2024-02-21T14:18:53;14.70;70.80
11264;DHT22;5689;48.798;9.070;2024-02-21T14:21:22;14.30;71.20
11264;DHT22;5689;48.798;9.070;2024-02-21T14:23:50;14.30;71.90
11264;DHT22;5689;48.798;9.070;2024-02-21T14:26:19;14.40;72.20
11264;DHT22;5689;48.798;9.070;2024-02-21T14:28:48;14.60;70.80
11264;DHT22;5689;48.798;9.070;2024-02-21T14:31:16;14.60;71.00
11264;DHT22;5689;48.798;9.070;2024-02-21T14:33:46;14.70;70.70
11264;DHT22;5689;48.798;9.070;2024-02-21T14:36:14;14.50;69.70
11264;DHT22;5689;48.798;9.070;2024-02-21T14:38:43;14.60;70.70
11264;DHT22;5689;48.798;9.070;2024-02-21T14:41:12;14.40;69.20
11264;DHT22;5689;48.798;9.070;2024-02-21T14:43:40;14.30;69.20
11264;DHT22;5689;48.798;9.070;2024-02-21T14:46:08;14.20;68.30
11264;DHT22;5689;48.798;9.070;2024-02-21T14:48:36;14.10;68.10
11264;DHT22;5689;48.798;9.070;2024-02-21T14:51:06;14.00;67.70
11264;DHT22;5689;48.798;9.070;2024-02-21T14:53:34;14.10;68.60
11264;DHT22;5689;48.798;9.070;2024-02-21T14:56:02;14.30;68.80
11264;DHT22;5689;48.798;9.070;2024-02-21T14:58:30;14.00;65.40
11264;DHT22;5689;48.798;9.070;2024-02-21T15:00:59;14.00;67.20
11264;DHT22;5689;48.798;9.070;2024-02-21T15:03:27;13.80;66.10
11264;DHT22;5689;48.798;9.070;2024-02-21T15:05:56;13.70;66.10
11264;DHT22;5689;48.798;9.070;2024-02-21T15:08:26;13.80;67.00
11264;DHT22;5689;48.798;9.070;2024-02-21T15:10:55;13.70;66.10
11264;DHT22;5689;48.798;9.070;2024-02-21T15:13:23;13.60;65.40
11264;DHT22;5689;48.798;9.070;2024-02-21T15:15:52;13.60;65.40
11264;DHT22;5689;48.798;9.070;2024-02-21T15:18:21;13.60;66.40
11264;DHT22;5689;48.798;9.070;2024-02-21T15:20:49;13.60;66.30
11264;DHT22;5689;48.798;9.070;2024-02-21T15:23:18;13.70;65.80
11264;DHT22;5689;48.798;9.070;2024-02-21T15:25:48;13.60;65.90
11264;DHT22;5689;48.798;9.070;2024-02-21T15:28:17;13.60;65.70
11264;DHT22;5689;48.798;9.070;2024-02-21T15:30:45;13.70;65.50
11264;DHT22;5689;48.798;9.070;2024-02-21T15:33:14;13.60;64.80
11264;DHT22;5689;48.798;9.070;2024-02-21T15:35:42;13.50;65.60
11264;DHT22;5689;48.798;9.070;2024-02-21T15:38:10;13.60;66.20
11264;DHT22;5689;48.798;9.070;2024-02-21T15:40:38;13.50;65.30
11264;DHT22;5689;48.798;9.070;2024-02-21T15:43:08;13.40;65.40
11264;DHT22;5689;48.798;9.070;2024-02-21T15:45:36;13.40;66.40
11264;DHT22;5689;48.798;9.070;2024-02-21T15:48:06;13.40;66.80
11264;DHT22;5689;48.798;9.070;2024-02-21T15:50:35;13.40;67.20
11264;DHT22;5689;48.798;9.070;2024-02-21T15:53:04;13.50;66.30
11264;DHT22;5689;48.798;9.070;2024-02-21T15:55:32;13.30;67.50
11264;DHT22;5689;48.798;9.070;2024-02-21T15:58:00;13.30;68.30
11264;DHT22;5689;48.798;9.070;2024-02-21T16:00:32;13.30;68.80
11264;DHT22;5689;48.798;9.070;2024-02-21T16:03:01;13.30;68.90
11264;DHT22;5689;48.798;9.070;2024-02-21T16:05:30;13.20;70.10
11264;DHT22;5689;48.798;9.070;2024-02-21T16:07:58;13.20;70.40
11264;DHT22;5689;48.798;9.070;2024-02-21T16:10:27;12.90;71.70